sensor_id;sensor_type;location;lat;lon;timestamp;P1;durP1;ratioP1;P2;durP2;ratioP2
57899;SDS011;60605;53.716;19.940;2024-02-26T00:02:55;71.50;;;32.90;;
57899;SDS011;60605;53.716;19.940;2024-02-26T00:07:58;82.20;;;37.10;;
57899;SDS011;60605;53.716;19.940;2024-02-26T00:13:03;75.00;;;36.60;;
57899;SDS011;60605;53.716;19.940;2024-02-26T00:18:06;52.90;;;28.00;;
57899;SDS011;60605;53.716;19.940;2024-02-26T00:23:08;46.60;;;26.80;;
57899;SDS011;60605;53.716;19.940;2024-02-26T00:28:11;39.70;;;23.10;;
57899;SDS011;60605;53.716;19.940;2024-02-26T00:33:16;39.50;;;21.90;;
57899;SDS011;60605;53.716;19.940;2024-02-26T00:38:18;41.00;;;22.80;;
57899;SDS011;60605;53.716;19.940;2024-02-26T00:43:20;37.50;;;22.00;;
57899;SDS011;60605;53.716;19.940;2024-02-26T00:48:22;35.00;;;20.80;;
57899;SDS011;60605;53.716;19.940;2024-02-26T00:53:27;39.60;;;22.10;;
57899;SDS011;60605;53.716;19.940;2024-02-26T00:58:30;44.30;;;24.40;;
57899;SDS011;60605;53.716;19.940;2024-02-26T01:03:32;35.70;;;20.80;;
57899;SDS011;60605;53.716;19.940;2024-02-26T01:08:35;35.20;;;19.00;;
57899;SDS011;60605;53.716;19.940;2024-02-26T01:13:37;40.60;;;20.30;;
57899;SDS011;60605;53.716;19.940;2024-02-26T01:18:39;49.80;;;20.50;;
57899;SDS011;60605;53.716;19.940;2024-02-26T01:23:41;75.10;;;27.00;;
57899;SDS011;60605;53.716;19.940;2024-02-26T01:28:44;63.50;;;24.10;;
57899;SDS011;60605;53.716;19.940;2024-02-26T01:33:46;46.70;;;23.20;;
57899;SDS011;60605;53.716;19.940;2024-02-26T01:38:48;53.90;;;22.20;;
57899;SDS011;60605;53.716;19.940;2024-02-26T01:43:50;54.50;;;25.50;;
57899;SDS011;60605;53.716;19.940;2024-02-26T01:48:52;97.20;;;34.00;;
57899;SDS011;60605;53.716;19.940;2024-02-26T01:53:55;59.00;;;25.70;;
57899;SDS011;60605;53.716;19.940;2024-02-26T01:58:58;62.50;;;26.90;;
57899;SDS011;60605;53.716;19.940;2024-02-26T02:04:00;48.40;;;24.70;;
57899;SDS011;60605;53.716;19.940;2024-02-26T02:09:03;53.50;;;27.50;;
57899;SDS011;60605;53.716;19.940;2024-02-26T02:14:08;117.30;;;34.00;;
57899;SDS011;60605;53.716;19.940;2024-02-26T02:19:10;90.10;;;33.40;;
57899;SDS011;60605;53.716;19.940;2024-02-26T02:24:12;145.70;;;41.40;;
57899;SDS011;60605;53.716;19.940;2024-02-26T02:29:14;79.60;;;31.20;;
57899;SDS011;60605;53.716;19.940;2024-02-26T02:34:16;65.60;;;30.10;;
57899;SDS011;60605;53.716;19.940;2024-02-26T02:39:19;56.60;;;26.60;;
57899;SDS011;60605;53.716;19.940;2024-02-26T02:44:21;68.70;;;33.80;;
57899;SDS011;60605;53.716;19.940;2024-02-26T02:49:23;329.20;;;158.90;;
57899;SDS011;60605;53.716;19.940;2024-02-26T02:54:25;48.30;;;25.60;;
57899;SDS011;60605;53.716;19.940;2024-02-26T02:59:27;48.00;;;27.70;;
57899;SDS011;60605;53.716;19.940;2024-02-26T03:04:29;65.30;;;35.40;;
57899;SDS011;60605;53.716;19.940;2024-02-26T03:09:31;68.10;;;36.20;;
57899;SDS011;60605;53.716;19.940;2024-02-26T03:14:33;72.70;;;37.10;;
57899;SDS011;60605;53.716;19.940;2024-02-26T03:19:35;62.70;;;35.00;;
57899;SDS011;60605;53.716;19.940;2024-02-26T03:24:38;61.20;;;34.00;;
57899;SDS011;60605;53.716;19.940;2024-02-26T03:29:40;65.60;;;35.50;;
57899;SDS011;60605;53.716;19.940;2024-02-26T03:34:42;55.90;;;32.90;;
57899;SDS011;60605;53.716;19.940;2024-02-26T03:39:47;284.90;;;75.20;;
57899;SDS011;60605;53.716;19.940;2024-02-26T03:44:48;132.50;;;45.30;;
57899;SDS011;60605;53.716;19.940;2024-02-26T03:49:51;172.70;;;51.20;;
57899;SDS011;60605;53.716;19.940;2024-02-26T03:54:53;222.50;;;64.90;;
57899;SDS011;60605;53.716;19.940;2024-02-26T03:59:55;271.60;;;72.20;;
57899;SDS011;60605;53.716;19.940;2024-02-26T04:04:58;363.00;;;93.40;;
57899;SDS011;60605;53.716;19.940;2024-02-26T04:10:01;310.90;;;86.10;;
57899;SDS011;60605;53.716;19.940;2024-02-26T04:15:08;266.10;;;76.20;;
57899;SDS011;60605;53.716;19.940;2024-02-26T04:20:15;237.60;;;72.50;;
57899;SDS011;60605;53.716;19.940;2024-02-26T04:25:18;216.90;;;69.90;;
57899;SDS011;60605;53.716;19.940;2024-02-26T04:30:20;207.20;;;70.20;;
57899;SDS011;60605;53.716;19.940;2024-02-26T04:35:22;214.90;;;71.50;;
57899;SDS011;60605;53.716;19.940;2024-02-26T04:40:24;214.40;;;68.40;;
57899;SDS011;60605;53.716;19.940;2024-02-26T04:45:27;205.40;;;68.00;;
57899;SDS011;60605;53.716;19.940;2024-02-26T04:50:29;178.10;;;61.50;;
57899;SDS011;60605;53.716;19.940;2024-02-26T04:55:31;133.80;;;53.30;;
57899;SDS011;60605;53.716;19.940;2024-02-26T05:00:33;76.40;;;36.00;;
57899;SDS011;60605;53.716;19.940;2024-02-26T05:05:35;70.00;;;31.50;;
57899;SDS011;60605;53.716;19.940;2024-02-26T05:10:37;107.80;;;35.70;;
57899;SDS011;60605;53.716;19.940;2024-02-26T05:15:45;90.80;;;38.40;;
57899;SDS011;60605;53.716;19.940;2024-02-26T05:20:49;82.00;;;38.40;;
57899;SDS011;60605;53.716;19.940;2024-02-26T05:25:51;79.60;;;42.50;;
57899;SDS011;60605;53.716;19.940;2024-02-26T05:30:54;88.30;;;43.10;;
57899;SDS011;60605;53.716;19.940;2024-02-26T05:35:56;157.90;;;35.10;;
57899;SDS011;60605;53.716;19.940;2024-02-26T05:40:58;136.70;;;31.70;;
57899;SDS011;60605;53.716;19.940;2024-02-26T05:46:01;164.50;;;46.70;;
57899;SDS011;60605;53.716;19.940;2024-02-26T05:51:03;92.00;;;48.40;;
57899;SDS011;60605;53.716;19.940;2024-02-26T05:56:06;113.90;;;48.80;;
57899;SDS011;60605;53.716;19.940;2024-02-26T06:01:08;92.00;;;44.40;;
57899;SDS011;60605;53.716;19.940;2024-02-26T06:06:11;173.80;;;72.20;;
57899;SDS011;60605;53.716;19.940;2024-02-26T06:16:16;148.80;;;72.60;;
57899;SDS011;60605;53.716;19.940;2024-02-26T06:21:18;147.60;;;63.70;;
57899;SDS011;60605;53.716;19.940;2024-02-26T06:26:21;170.50;;;59.50;;
57899;SDS011;60605;53.716;19.940;2024-02-26T06:31:23;147.70;;;72.10;;
57899;SDS011;60605;53.716;19.940;2024-02-26T06:36:25;66.80;;;37.20;;
57899;SDS011;60605;53.716;19.940;2024-02-26T06:41:27;65.50;;;35.40;;
57899;SDS011;60605;53.716;19.940;2024-02-26T06:46:31;43.60;;;28.70;;
57899;SDS011;60605;53.716;19.940;2024-02-26T06:51:33;45.10;;;28.70;;
57899;SDS011;60605;53.716;19.940;2024-02-26T06:56:36;54.30;;;33.10;;
57899;SDS011;60605;53.716;19.940;2024-02-26T07:01:40;47.90;;;30.90;;
57899;SDS011;60605;53.716;19.940;2024-02-26T07:06:44;36.40;;;26.80;;
57899;SDS011;60605;53.716;19.940;2024-02-26T07:11:48;33.00;;;24.00;;
57899;SDS011;60605;53.716;19.940;2024-02-26T07:16:50;69.30;;;37.50;;
57899;SDS011;60605;53.716;19.940;2024-02-26T07:21:52;24.10;;;17.50;;
57899;SDS011;60605;53.716;19.940;2024-02-26T07:26:55;28.60;;;22.90;;
57899;SDS011;60605;53.716;19.940;2024-02-26T07:31:57;26.70;;;23.30;;
57899;SDS011;60605;53.716;19.940;2024-02-26T07:37:00;21.80;;;17.50;;
57899;SDS011;60605;53.716;19.940;2024-02-26T07:42:02;22.80;;;17.00;;
57899;SDS011;60605;53.716;19.940;2024-02-26T07:47:05;22.30;;;17.60;;
57899;SDS011;60605;53.716;19.940;2024-02-26T07:52:07;24.40;;;17.90;;
57899;SDS011;60605;53.716;19.940;2024-02-26T07:57:09;22.70;;;17.00;;
57899;SDS011;60605;53.716;19.940;2024-02-26T08:02:11;21.10;;;18.00;;
57899;SDS011;60605;53.716;19.940;2024-02-26T08:07:13;25.60;;;21.00;;
57899;SDS011;60605;53.716;19.940;2024-02-26T08:12:15;24.40;;;20.50;;
57899;SDS011;60605;53.716;19.940;2024-02-26T08:17:18;21.50;;;17.60;;
57899;SDS011;60605;53.716;19.940;2024-02-26T08:22:20;21.50;;;19.00;;
57899;SDS011;60605;53.716;19.940;2024-02-26T08:27:22;28.80;;;21.70;;
57899;SDS011;60605;53.716;19.940;2024-02-26T08:32:26;19.70;;;15.90;;
57899;SDS011;60605;53.716;19.940;2024-02-26T08:37:29;20.00;;;17.40;;
57899;SDS011;60605;53.716;19.940;2024-02-26T08:42:31;24.30;;;18.70;;
57899;SDS011;60605;53.716;19.940;2024-02-26T08:47:34;20.80;;;18.60;;
57899;SDS011;60605;53.716;19.940;2024-02-26T08:52:36;19.80;;;16.10;;
57899;SDS011;60605;53.716;19.940;2024-02-26T08:57:38;18.60;;;15.40;;
57899;SDS011;60605;53.716;19.940;2024-02-26T09:02:41;18.20;;;15.30;;
57899;SDS011;60605;53.716;19.940;2024-02-26T09:07:45;21.60;;;16.40;;
57899;SDS011;60605;53.716;19.940;2024-02-26T09:12:48;20.80;;;16.80;;
57899;SDS011;60605;53.716;19.940;2024-02-26T09:17:50;22.10;;;17.80;;
57899;SDS011;60605;53.716;19.940;2024-02-26T09:22:53;13.30;;;10.90;;
57899;SDS011;60605;53.716;19.940;2024-02-26T09:27:56;15.70;;;12.80;;
57899;SDS011;60605;53.716;19.940;2024-02-26T09:32:58;13.20;;;11.20;;
57899;SDS011;60605;53.716;19.940;2024-02-26T09:38:00;12.80;;;10.30;;
57899;SDS011;60605;53.716;19.940;2024-02-26T09:43:02;13.40;;;11.10;;
57899;SDS011;60605;53.716;19.940;2024-02-26T09:48:06;23.40;;;19.90;;
57899;SDS011;60605;53.716;19.940;2024-02-26T09:53:12;13.90;;;11.90;;
57899;SDS011;60605;53.716;19.940;2024-02-26T09:58:16;13.70;;;10.60;;
57899;SDS011;60605;53.716;19.940;2024-02-26T10:03:21;17.00;;;13.40;;
57899;SDS011;60605;53.716;19.940;2024-02-26T10:08:28;18.10;;;14.50;;
57899;SDS011;60605;53.716;19.940;2024-02-26T10:13:31;13.90;;;10.90;;
57899;SDS011;60605;53.716;19.940;2024-02-26T10:24:00;17.50;;;12.00;;
57899;SDS011;60605;53.716;19.940;2024-02-26T10:29:02;17.30;;;12.30;;
57899;SDS011;60605;53.716;19.940;2024-02-26T10:34:05;17.60;;;9.80;;
57899;SDS011;60605;53.716;19.940;2024-02-26T10:39:07;15.70;;;10.50;;
57899;SDS011;60605;53.716;19.940;2024-02-26T10:44:10;23.90;;;12.10;;
57899;SDS011;60605;53.716;19.940;2024-02-26T10:49:19;20.90;;;11.60;;
57899;SDS011;60605;53.716;19.940;2024-02-26T10:54:25;15.00;;;10.50;;
57899;SDS011;60605;53.716;19.940;2024-02-26T10:59:29;14.60;;;9.20;;
57899;SDS011;60605;53.716;19.940;2024-02-26T11:04:33;29.50;;;16.40;;
57899;SDS011;60605;53.716;19.940;2024-02-26T11:09:36;16.70;;;10.50;;
57899;SDS011;60605;53.716;19.940;2024-02-26T11:14:44;13.70;;;7.60;;
57899;SDS011;60605;53.716;19.940;2024-02-26T11:19:48;13.30;;;7.90;;
57899;SDS011;60605;53.716;19.940;2024-02-26T11:24:52;16.20;;;8.80;;
57899;SDS011;60605;53.716;19.940;2024-02-26T11:30:03;12.90;;;7.90;;
57899;SDS011;60605;53.716;19.940;2024-02-26T11:35:07;8.20;;;5.70;;
57899;SDS011;60605;53.716;19.940;2024-02-26T11:40:11;10.50;;;6.00;;
57899;SDS011;60605;53.716;19.940;2024-02-26T11:50:42;10.00;;;8.80;;
57899;SDS011;60605;53.716;19.940;2024-02-26T11:55:48;8.40;;;5.60;;
57899;SDS011;60605;53.716;19.940;2024-02-26T12:06:42;10.00;;;6.10;;
57899;SDS011;60605;53.716;19.940;2024-02-26T12:11:47;11.80;;;7.50;;
57899;SDS011;60605;53.716;19.940;2024-02-26T12:16:51;12.10;;;6.70;;
57899;SDS011;60605;53.716;19.940;2024-02-26T12:21:54;10.00;;;5.90;;
57899;SDS011;60605;53.716;19.940;2024-02-26T12:26:56;15.10;;;8.10;;
57899;SDS011;60605;53.716;19.940;2024-02-26T12:31:59;12.00;;;7.80;;
57899;SDS011;60605;53.716;19.940;2024-02-26T12:37:05;17.60;;;8.40;;
57899;SDS011;60605;53.716;19.940;2024-02-26T12:42:10;15.20;;;8.70;;
57899;SDS011;60605;53.716;19.940;2024-02-26T12:47:12;13.10;;;7.90;;
57899;SDS011;60605;53.716;19.940;2024-02-26T12:52:18;13.00;;;7.50;;
57899;SDS011;60605;53.716;19.940;2024-02-26T12:57:20;12.00;;;8.40;;
57899;SDS011;60605;53.716;19.940;2024-02-26T13:02:23;12.80;;;8.90;;
57899;SDS011;60605;53.716;19.940;2024-02-26T13:07:25;12.20;;;8.30;;
57899;SDS011;60605;53.716;19.940;2024-02-26T13:12:27;13.60;;;8.40;;
57899;SDS011;60605;53.716;19.940;2024-02-26T13:17:32;12.70;;;7.60;;
57899;SDS011;60605;53.716;19.940;2024-02-26T13:22:34;12.30;;;7.40;;
57899;SDS011;60605;53.716;19.940;2024-02-26T13:27:37;8.80;;;7.10;;
57899;SDS011;60605;53.716;19.940;2024-02-26T13:32:39;11.30;;;8.40;;
57899;SDS011;60605;53.716;19.940;2024-02-26T13:37:42;11.80;;;8.10;;
57899;SDS011;60605;53.716;19.940;2024-02-26T13:42:44;15.90;;;9.10;;
57899;SDS011;60605;53.716;19.940;2024-02-26T13:47:47;13.90;;;8.40;;
57899;SDS011;60605;53.716;19.940;2024-02-26T13:52:50;14.50;;;9.40;;
57899;SDS011;60605;53.716;19.940;2024-02-26T13:57:55;14.80;;;9.20;;
57899;SDS011;60605;53.716;19.940;2024-02-26T14:02:59;40.70;;;21.90;;
57899;SDS011;60605;53.716;19.940;2024-02-26T14:08:02;52.50;;;32.50;;
57899;SDS011;60605;53.716;19.940;2024-02-26T14:13:05;44.60;;;27.00;;
57899;SDS011;60605;53.716;19.940;2024-02-26T14:18:07;356.00;;;213.80;;
57899;SDS011;60605;53.716;19.940;2024-02-26T14:23:10;149.40;;;68.70;;
57899;SDS011;60605;53.716;19.940;2024-02-26T14:28:12;372.20;;;180.00;;
57899;SDS011;60605;53.716;19.940;2024-02-26T14:33:23;1212.80;;;618.00;;
57899;SDS011;60605;53.716;19.940;2024-02-26T14:38:25;839.60;;;394.20;;
57899;SDS011;60605;53.716;19.940;2024-02-26T14:43:28;306.80;;;118.90;;
57899;SDS011;60605;53.716;19.940;2024-02-26T14:53:33;309.80;;;131.60;;
57899;SDS011;60605;53.716;19.940;2024-02-26T14:58:36;359.00;;;142.30;;
57899;SDS011;60605;53.716;19.940;2024-02-26T15:03:39;462.60;;;173.80;;
57899;SDS011;60605;53.716;19.940;2024-02-26T15:08:42;282.20;;;117.60;;
57899;SDS011;60605;53.716;19.940;2024-02-26T15:13:44;215.10;;;127.20;;
57899;SDS011;60605;53.716;19.940;2024-02-26T15:18:47;114.00;;;45.70;;
57899;SDS011;60605;53.716;19.940;2024-02-26T15:23:49;158.60;;;57.90;;
57899;SDS011;60605;53.716;19.940;2024-02-26T15:29:08;63.30;;;38.20;;
57899;SDS011;60605;53.716;19.940;2024-02-26T15:34:11;72.10;;;38.10;;
57899;SDS011;60605;53.716;19.940;2024-02-26T15:39:14;68.60;;;38.00;;
57899;SDS011;60605;53.716;19.940;2024-02-26T15:44:16;35.60;;;22.10;;
57899;SDS011;60605;53.716;19.940;2024-02-26T15:49:18;36.20;;;23.30;;
57899;SDS011;60605;53.716;19.940;2024-02-26T15:54:20;23.20;;;15.00;;
57899;SDS011;60605;53.716;19.940;2024-02-26T15:59:22;15.20;;;10.40;;
57899;SDS011;60605;53.716;19.940;2024-02-26T16:04:24;33.90;;;20.40;;
57899;SDS011;60605;53.716;19.940;2024-02-26T16:09:27;144.90;;;62.50;;
57899;SDS011;60605;53.716;19.940;2024-02-26T16:19:49;146.80;;;68.40;;
57899;SDS011;60605;53.716;19.940;2024-02-26T16:24:53;185.70;;;79.90;;
57899;SDS011;60605;53.716;19.940;2024-02-26T16:29:55;127.60;;;54.70;;
57899;SDS011;60605;53.716;19.940;2024-02-26T16:35:01;401.30;;;183.10;;
57899;SDS011;60605;53.716;19.940;2024-02-26T16:40:04;112.80;;;45.80;;
57899;SDS011;60605;53.716;19.940;2024-02-26T16:45:07;65.50;;;28.30;;
57899;SDS011;60605;53.716;19.940;2024-02-26T16:50:10;321.70;;;140.80;;
57899;SDS011;60605;53.716;19.940;2024-02-26T16:55:12;124.70;;;60.00;;
57899;SDS011;60605;53.716;19.940;2024-02-26T17:00:16;106.80;;;57.70;;
57899;SDS011;60605;53.716;19.940;2024-02-26T17:05:19;56.50;;;30.00;;
57899;SDS011;60605;53.716;19.940;2024-02-26T17:10:21;50.30;;;25.40;;
57899;SDS011;60605;53.716;19.940;2024-02-26T17:15:23;253.60;;;89.90;;
57899;SDS011;60605;53.716;19.940;2024-02-26T17:20:25;168.70;;;60.70;;
57899;SDS011;60605;53.716;19.940;2024-02-26T17:25:27;127.80;;;50.20;;
57899;SDS011;60605;53.716;19.940;2024-02-26T17:30:29;147.20;;;56.70;;
57899;SDS011;60605;53.716;19.940;2024-02-26T17:35:31;145.80;;;61.30;;
57899;SDS011;60605;53.716;19.940;2024-02-26T17:40:33;370.40;;;155.00;;
57899;SDS011;60605;53.716;19.940;2024-02-26T17:45:35;76.00;;;41.70;;
57899;SDS011;60605;53.716;19.940;2024-02-26T17:50:38;137.60;;;66.40;;
57899;SDS011;60605;53.716;19.940;2024-02-26T17:55:41;68.70;;;40.10;;
57899;SDS011;60605;53.716;19.940;2024-02-26T18:00:44;152.80;;;88.20;;
57899;SDS011;60605;53.716;19.940;2024-02-26T18:05:50;166.80;;;77.70;;
57899;SDS011;60605;53.716;19.940;2024-02-26T18:10:53;98.90;;;54.60;;
57899;SDS011;60605;53.716;19.940;2024-02-26T18:15:55;62.20;;;31.90;;
57899;SDS011;60605;53.716;19.940;2024-02-26T18:20:58;61.90;;;27.00;;
57899;SDS011;60605;53.716;19.940;2024-02-26T18:26:01;42.20;;;27.00;;
57899;SDS011;60605;53.716;19.940;2024-02-26T18:31:03;40.10;;;25.60;;
57899;SDS011;60605;53.716;19.940;2024-02-26T18:36:06;44.10;;;30.40;;
57899;SDS011;60605;53.716;19.940;2024-02-26T18:41:16;45.70;;;27.60;;
57899;SDS011;60605;53.716;19.940;2024-02-26T18:46:20;81.70;;;42.40;;
57899;SDS011;60605;53.716;19.940;2024-02-26T18:51:23;118.60;;;47.70;;
57899;SDS011;60605;53.716;19.940;2024-02-26T18:56:26;100.00;;;47.40;;
57899;SDS011;60605;53.716;19.940;2024-02-26T19:01:29;137.20;;;53.00;;
57899;SDS011;60605;53.716;19.940;2024-02-26T19:06:33;124.90;;;51.90;;
57899;SDS011;60605;53.716;19.940;2024-02-26T19:11:37;89.40;;;47.60;;
57899;SDS011;60605;53.716;19.940;2024-02-26T19:16:39;73.40;;;38.20;;
57899;SDS011;60605;53.716;19.940;2024-02-26T19:21:43;79.70;;;36.80;;
57899;SDS011;60605;53.716;19.940;2024-02-26T19:26:45;62.10;;;34.00;;
57899;SDS011;60605;53.716;19.940;2024-02-26T19:31:48;77.20;;;38.20;;
57899;SDS011;60605;53.716;19.940;2024-02-26T19:36:50;106.20;;;47.50;;
57899;SDS011;60605;53.716;19.940;2024-02-26T19:41:52;85.20;;;39.70;;
57899;SDS011;60605;53.716;19.940;2024-02-26T19:46:54;127.20;;;50.40;;
57899;SDS011;60605;53.716;19.940;2024-02-26T19:51:57;135.30;;;51.70;;
57899;SDS011;60605;53.716;19.940;2024-02-26T19:57:00;94.70;;;42.60;;
57899;SDS011;60605;53.716;19.940;2024-02-26T20:02:06;135.10;;;53.80;;
57899;SDS011;60605;53.716;19.940;2024-02-26T20:07:08;81.30;;;39.80;;
57899;SDS011;60605;53.716;19.940;2024-02-26T20:12:11;82.90;;;41.60;;
57899;SDS011;60605;53.716;19.940;2024-02-26T20:17:13;73.10;;;37.20;;
57899;SDS011;60605;53.716;19.940;2024-02-26T20:22:17;76.30;;;35.20;;
57899;SDS011;60605;53.716;19.940;2024-02-26T20:27:19;48.70;;;26.50;;
57899;SDS011;60605;53.716;19.940;2024-02-26T20:32:23;51.30;;;27.20;;
57899;SDS011;60605;53.716;19.940;2024-02-26T20:37:27;44.60;;;24.30;;
57899;SDS011;60605;53.716;19.940;2024-02-26T20:42:30;52.20;;;27.20;;
57899;SDS011;60605;53.716;19.940;2024-02-26T20:47:33;65.90;;;33.20;;
57899;SDS011;60605;53.716;19.940;2024-02-26T20:52:35;81.50;;;34.40;;
57899;SDS011;60605;53.716;19.940;2024-02-26T20:57:38;177.20;;;68.80;;
57899;SDS011;60605;53.716;19.940;2024-02-26T21:02:40;230.90;;;79.80;;
57899;SDS011;60605;53.716;19.940;2024-02-26T21:07:43;125.00;;;50.70;;
57899;SDS011;60605;53.716;19.940;2024-02-26T21:12:49;192.90;;;54.80;;
57899;SDS011;60605;53.716;19.940;2024-02-26T21:17:51;60.10;;;29.30;;
57899;SDS011;60605;53.716;19.940;2024-02-26T21:22:54;43.90;;;23.40;;
57899;SDS011;60605;53.716;19.940;2024-02-26T21:27:57;43.50;;;23.30;;
57899;SDS011;60605;53.716;19.940;2024-02-26T21:33:01;58.70;;;27.00;;
57899;SDS011;60605;53.716;19.940;2024-02-26T21:38:04;47.50;;;24.40;;
57899;SDS011;60605;53.716;19.940;2024-02-26T21:43:09;39.90;;;22.00;;
57899;SDS011;60605;53.716;19.940;2024-02-26T21:48:12;50.70;;;26.70;;
57899;SDS011;60605;53.716;19.940;2024-02-26T21:53:15;41.00;;;24.00;;
57899;SDS011;60605;53.716;19.940;2024-02-26T21:58:17;90.60;;;36.40;;
57899;SDS011;60605;53.716;19.940;2024-02-26T22:03:21;182.00;;;66.00;;
57899;SDS011;60605;53.716;19.940;2024-02-26T22:08:24;95.40;;;43.80;;
57899;SDS011;60605;53.716;19.940;2024-02-26T22:13:27;133.80;;;53.60;;
57899;SDS011;60605;53.716;19.940;2024-02-26T22:18:29;76.20;;;38.10;;
57899;SDS011;60605;53.716;19.940;2024-02-26T22:23:32;91.60;;;45.70;;
57899;SDS011;60605;53.716;19.940;2024-02-26T22:28:34;64.30;;;33.60;;
57899;SDS011;60605;53.716;19.940;2024-02-26T22:33:37;288.10;;;79.40;;
57899;SDS011;60605;53.716;19.940;2024-02-26T22:38:39;119.00;;;48.70;;
57899;SDS011;60605;53.716;19.940;2024-02-26T22:43:41;108.40;;;52.60;;
57899;SDS011;60605;53.716;19.940;2024-02-26T22:48:43;76.90;;;38.10;;
57899;SDS011;60605;53.716;19.940;2024-02-26T22:53:46;69.10;;;35.60;;
57899;SDS011;60605;53.716;19.940;2024-02-26T22:58:48;76.30;;;39.90;;
57899;SDS011;60605;53.716;19.940;2024-02-26T23:03:51;81.40;;;43.60;;
57899;SDS011;60605;53.716;19.940;2024-02-26T23:08:53;71.90;;;38.70;;
57899;SDS011;60605;53.716;19.940;2024-02-26T23:13:56;125.70;;;48.60;;
57899;SDS011;60605;53.716;19.940;2024-02-26T23:18:58;56.90;;;30.30;;
57899;SDS011;60605;53.716;19.940;2024-02-26T23:24:01;52.40;;;28.10;;
57899;SDS011;60605;53.716;19.940;2024-02-26T23:29:03;51.50;;;29.30;;
57899;SDS011;60605;53.716;19.940;2024-02-26T23:34:05;41.70;;;24.60;;
57899;SDS011;60605;53.716;19.940;2024-02-26T23:39:07;55.30;;;27.80;;
57899;SDS011;60605;53.716;19.940;2024-02-26T23:44:09;52.20;;;26.90;;
57899;SDS011;60605;53.716;19.940;2024-02-26T23:49:11;36.40;;;21.60;;
57899;SDS011;60605;53.716;19.940;2024-02-26T23:54:13;34.50;;;21.30;;
57899;SDS011;60605;53.716;19.940;2024-02-26T23:59:15;33.70;;;20.90;;
